sensor_id;sensor_type;location;lat;lon;timestamp;pressure;altitude;pressure_sealevel;temperature;humidity
35307;BME280;21420;52.196;21.416;2023-06-22T00:01:19;100288.30;;;21.00;59.29
35307;BME280;21420;52.196;21.416;2023-06-22T00:03:47;100283.45;;;20.99;59.32
35307;BME280;21420;52.196;21.416;2023-06-22T00:06:15;100285.59;;;21.02;59.57
35307;BME280;21420;52.196;21.416;2023-06-22T00:08:41;100283.41;;;21.05;59.67
35307;BME280;21420;52.196;21.416;2023-06-22T00:11:08;100286.11;;;21.06;59.74
35307;BME280;21420;52.196;21.416;2023-06-22T00:13:35;100288.02;;;21.05;59.65
35307;BME280;21420;52.196;21.416;2023-06-22T00:16:01;100292.80;;;21.04;59.71
35307;BME280;21420;52.196;21.416;2023-06-22T00:18:28;100290.11;;;21.03;59.69
35307;BME280;21420;52.196;21.416;2023-06-22T00:20:57;100288.18;;;21.05;59.75
35307;BME280;21420;52.196;21.416;2023-06-22T00:23:25;100285.63;;;21.07;59.96
35307;BME280;21420;52.196;21.416;2023-06-22T00:25:52;100285.13;;;21.10;59.93
35307;BME280;21420;52.196;21.416;2023-06-22T00:28:19;100283.52;;;21.11;60.04
35307;BME280;21420;52.196;21.416;2023-06-22T00:30:48;100283.04;;;21.11;59.99
35307;BME280;21420;52.196;21.416;2023-06-22T00:33:15;100285.51;;;21.11;60.09
35307;BME280;21420;52.196;21.416;2023-06-22T00:35:43;100284.90;;;21.09;60.10
35307;BME280;21420;52.196;21.416;2023-06-22T00:38:10;100283.47;;;21.07;60.17
35307;BME280;21420;52.196;21.416;2023-06-22T00:40:37;100279.98;;;21.07;60.26
35307;BME280;21420;52.196;21.416;2023-06-22T00:43:05;100282.86;;;21.05;60.19
35307;BME280;21420;52.196;21.416;2023-06-22T00:45:32;100285.98;;;21.01;60.22
35307;BME280;21420;52.196;21.416;2023-06-22T00:47:59;100283.48;;;20.97;60.35
35307;BME280;21420;52.196;21.416;2023-06-22T00:50:30;100282.55;;;20.93;60.32
35307;BME280;21420;52.196;21.416;2023-06-22T00:53:06;100281.94;;;20.88;60.28
35307;BME280;21420;52.196;21.416;2023-06-22T00:55:41;100282.55;;;20.82;60.41
35307;BME280;21420;52.196;21.416;2023-06-22T00:58:29;100285.05;;;20.76;60.52
35307;BME280;21420;52.196;21.416;2023-06-22T01:00:56;100284.70;;;20.69;60.39
35307;BME280;21420;52.196;21.416;2023-06-22T01:03:26;100285.15;;;20.61;60.39
35307;BME280;21420;52.196;21.416;2023-06-22T01:05:58;100282.31;;;20.51;60.58
35307;BME280;21420;52.196;21.416;2023-06-22T01:08:43;100280.20;;;20.47;60.75
35307;BME280;21420;52.196;21.416;2023-06-22T01:11:20;100283.33;;;20.41;60.80
35307;BME280;21420;52.196;21.416;2023-06-22T01:14:03;100280.09;;;20.37;60.87
35307;BME280;21420;52.196;21.416;2023-06-22T01:16:35;100270.58;;;20.33;60.76
35307;BME280;21420;52.196;21.416;2023-06-22T01:21:58;100264.61;;;20.21;60.81
35307;BME280;21420;52.196;21.416;2023-06-22T01:24:33;100265.66;;;20.15;60.87
35307;BME280;21420;52.196;21.416;2023-06-22T01:27:36;100261.88;;;20.08;60.84
35307;BME280;21420;52.196;21.416;2023-06-22T01:30:14;100256.03;;;20.02;60.98
35307;BME280;21420;52.196;21.416;2023-06-22T01:32:42;100254.69;;;19.98;61.01
35307;BME280;21420;52.196;21.416;2023-06-22T01:35:10;100251.86;;;19.95;60.96
35307;BME280;21420;52.196;21.416;2023-06-22T01:37:38;100255.75;;;19.91;61.10
35307;BME280;21420;52.196;21.416;2023-06-22T01:40:06;100256.39;;;19.89;61.16
35307;BME280;21420;52.196;21.416;2023-06-22T01:42:35;100254.27;;;19.85;61.30
35307;BME280;21420;52.196;21.416;2023-06-22T01:45:04;100245.95;;;19.81;61.22
35307;BME280;21420;52.196;21.416;2023-06-22T01:47:31;100240.55;;;19.77;61.33
35307;BME280;21420;52.196;21.416;2023-06-22T01:49:58;100237.40;;;19.74;61.44
35307;BME280;21420;52.196;21.416;2023-06-22T01:52:25;100239.79;;;19.72;61.37
35307;BME280;21420;52.196;21.416;2023-06-22T01:54:52;100244.23;;;19.65;61.33
35307;BME280;21420;52.196;21.416;2023-06-22T01:57:20;100242.50;;;19.57;61.22
35307;BME280;21420;52.196;21.416;2023-06-22T01:59:57;100246.33;;;19.48;61.13
35307;BME280;21420;52.196;21.416;2023-06-22T02:02:30;100246.66;;;19.40;61.36
35307;BME280;21420;52.196;21.416;2023-06-22T02:05:06;100246.02;;;19.36;61.49
35307;BME280;21420;52.196;21.416;2023-06-22T02:07:46;100243.50;;;19.30;61.46
35307;BME280;21420;52.196;21.416;2023-06-22T02:10:14;100239.61;;;19.24;61.60
35307;BME280;21420;52.196;21.416;2023-06-22T02:12:43;100240.65;;;19.18;61.92
35307;BME280;21420;52.196;21.416;2023-06-22T02:15:11;100243.03;;;19.15;61.85
35307;BME280;21420;52.196;21.416;2023-06-22T02:17:39;100246.20;;;19.15;61.78
35307;BME280;21420;52.196;21.416;2023-06-22T02:20:14;100251.84;;;19.12;61.92
35307;BME280;21420;52.196;21.416;2023-06-22T02:22:41;100258.19;;;19.05;61.97
35307;BME280;21420;52.196;21.416;2023-06-22T02:25:10;100261.29;;;18.97;61.87
35307;BME280;21420;52.196;21.416;2023-06-22T02:27:37;100268.88;;;18.92;62.00
35307;BME280;21420;52.196;21.416;2023-06-22T02:30:09;100276.32;;;18.84;61.81
35307;BME280;21420;52.196;21.416;2023-06-22T02:32:37;100277.65;;;18.77;62.05
35307;BME280;21420;52.196;21.416;2023-06-22T02:35:09;100283.73;;;18.74;62.19
35307;BME280;21420;52.196;21.416;2023-06-22T02:37:37;100282.54;;;18.75;62.21
35307;BME280;21420;52.196;21.416;2023-06-22T02:40:09;100287.79;;;18.77;62.47
35307;BME280;21420;52.196;21.416;2023-06-22T02:42:36;100291.21;;;18.79;62.44
35307;BME280;21420;52.196;21.416;2023-06-22T02:45:03;100294.30;;;18.82;62.38
35307;BME280;21420;52.196;21.416;2023-06-22T02:47:30;100301.45;;;18.86;62.49
35307;BME280;21420;52.196;21.416;2023-06-22T02:49:57;100309.95;;;18.88;62.62
35307;BME280;21420;52.196;21.416;2023-06-22T02:52:24;100316.75;;;18.87;62.43
35307;BME280;21420;52.196;21.416;2023-06-22T02:54:51;100318.17;;;18.85;62.65
35307;BME280;21420;52.196;21.416;2023-06-22T02:57:19;100318.81;;;18.87;62.61
35307;BME280;21420;52.196;21.416;2023-06-22T02:59:45;100322.92;;;18.90;62.79
35307;BME280;21420;52.196;21.416;2023-06-22T03:02:12;100325.63;;;18.95;62.77
35307;BME280;21420;52.196;21.416;2023-06-22T03:04:39;100325.33;;;19.00;62.86
35307;BME280;21420;52.196;21.416;2023-06-22T03:07:06;100325.80;;;19.04;62.93
35307;BME280;21420;52.196;21.416;2023-06-22T03:09:33;100327.48;;;19.08;63.00
35307;BME280;21420;52.196;21.416;2023-06-22T03:12:00;100329.62;;;19.12;63.10
35307;BME280;21420;52.196;21.416;2023-06-22T03:14:34;100332.33;;;19.19;63.16
35307;BME280;21420;52.196;21.416;2023-06-22T03:17:01;100334.46;;;19.24;63.28
35307;BME280;21420;52.196;21.416;2023-06-22T03:19:29;100337.95;;;19.30;63.25
35307;BME280;21420;52.196;21.416;2023-06-22T03:21:59;100340.41;;;19.36;63.27
35307;BME280;21420;52.196;21.416;2023-06-22T03:24:26;100340.02;;;19.41;63.25
35307;BME280;21420;52.196;21.416;2023-06-22T03:26:56;100344.92;;;19.45;63.32
35307;BME280;21420;52.196;21.416;2023-06-22T03:29:23;100352.54;;;19.50;63.33
35307;BME280;21420;52.196;21.416;2023-06-22T03:31:50;100354.77;;;19.52;63.45
35307;BME280;21420;52.196;21.416;2023-06-22T03:34:17;100355.23;;;19.56;63.34
35307;BME280;21420;52.196;21.416;2023-06-22T03:36:45;100354.76;;;19.63;63.48
35307;BME280;21420;52.196;21.416;2023-06-22T03:39:12;100353.71;;;19.66;63.68
35307;BME280;21420;52.196;21.416;2023-06-22T03:41:39;100358.50;;;19.69;63.59
35307;BME280;21420;52.196;21.416;2023-06-22T03:44:06;100357.70;;;19.73;63.58
35307;BME280;21420;52.196;21.416;2023-06-22T03:46:32;100358.17;;;19.78;63.70
35307;BME280;21420;52.196;21.416;2023-06-22T03:48:59;100363.88;;;19.83;63.86
35307;BME280;21420;52.196;21.416;2023-06-22T03:51:29;100364.35;;;19.88;63.73
35307;BME280;21420;52.196;21.416;2023-06-22T03:53:55;100366.16;;;19.93;63.78
35307;BME280;21420;52.196;21.416;2023-06-22T03:56:22;100364.80;;;20.01;63.89
35307;BME280;21420;52.196;21.416;2023-06-22T03:58:49;100365.42;;;20.08;63.96
35307;BME280;21420;52.196;21.416;2023-06-22T04:01:15;100366.98;;;20.15;63.81
35307;BME280;21420;52.196;21.416;2023-06-22T04:03:43;100366.42;;;20.21;63.92
35307;BME280;21420;52.196;21.416;2023-06-22T04:06:10;100364.09;;;20.27;64.03
35307;BME280;21420;52.196;21.416;2023-06-22T04:08:37;100368.60;;;20.32;63.92
35307;BME280;21420;52.196;21.416;2023-06-22T04:11:03;100369.63;;;20.34;63.85
35307;BME280;21420;52.196;21.416;2023-06-22T04:13:31;100373.59;;;20.36;63.87
35307;BME280;21420;52.196;21.416;2023-06-22T04:15:58;100378.59;;;20.40;63.98
35307;BME280;21420;52.196;21.416;2023-06-22T04:18:24;100380.47;;;20.46;64.02
35307;BME280;21420;52.196;21.416;2023-06-22T04:20:51;100378.94;;;20.53;64.08
35307;BME280;21420;52.196;21.416;2023-06-22T04:23:17;100384.55;;;20.66;64.36
35307;BME280;21420;52.196;21.416;2023-06-22T04:25:44;100384.15;;;20.81;64.29
35307;BME280;21420;52.196;21.416;2023-06-22T04:28:11;100381.67;;;20.97;64.38
35307;BME280;21420;52.196;21.416;2023-06-22T04:30:39;100385.71;;;21.12;64.38
35307;BME280;21420;52.196;21.416;2023-06-22T04:33:15;100382.90;;;21.28;64.32
35307;BME280;21420;52.196;21.416;2023-06-22T04:35:45;100383.73;;;21.47;64.41
35307;BME280;21420;52.196;21.416;2023-06-22T04:38:12;100378.27;;;21.64;64.37
35307;BME280;21420;52.196;21.416;2023-06-22T04:40:40;100379.64;;;21.78;64.22
35307;BME280;21420;52.196;21.416;2023-06-22T04:43:06;100377.76;;;21.92;64.16
35307;BME280;21420;52.196;21.416;2023-06-22T04:45:33;100377.72;;;22.04;64.24
35307;BME280;21420;52.196;21.416;2023-06-22T04:48:00;100381.36;;;22.22;64.30
35307;BME280;21420;52.196;21.416;2023-06-22T04:50:26;100387.30;;;22.34;64.23
35307;BME280;21420;52.196;21.416;2023-06-22T04:52:53;100388.56;;;22.47;64.18
35307;BME280;21420;52.196;21.416;2023-06-22T04:55:20;100387.34;;;22.61;64.24
35307;BME280;21420;52.196;21.416;2023-06-22T04:57:48;100386.77;;;22.81;64.46
35307;BME280;21420;52.196;21.416;2023-06-22T05:00:19;100385.15;;;23.01;64.19
35307;BME280;21420;52.196;21.416;2023-06-22T05:02:49;100384.19;;;23.12;64.03
35307;BME280;21420;52.196;21.416;2023-06-22T05:05:16;100374.75;;;23.25;63.98
35307;BME280;21420;52.196;21.416;2023-06-22T05:07:44;100373.79;;;23.40;64.01
35307;BME280;21420;52.196;21.416;2023-06-22T05:10:14;100375.42;;;23.57;63.82
35307;BME280;21420;52.196;21.416;2023-06-22T05:12:41;100369.66;;;23.73;63.81
35307;BME280;21420;52.196;21.416;2023-06-22T05:15:08;100366.09;;;23.81;63.44
35307;BME280;21420;52.196;21.416;2023-06-22T05:17:36;100366.12;;;23.93;63.67
35307;BME280;21420;52.196;21.416;2023-06-22T05:20:03;100364.87;;;24.04;63.53
35307;BME280;21420;52.196;21.416;2023-06-22T05:22:32;100369.33;;;24.17;63.39
35307;BME280;21420;52.196;21.416;2023-06-22T05:24:59;100370.54;;;24.32;63.33
35307;BME280;21420;52.196;21.416;2023-06-22T05:27:26;100370.21;;;24.51;63.19
35307;BME280;21420;52.196;21.416;2023-06-22T05:29:52;100375.31;;;24.58;62.88
35307;BME280;21420;52.196;21.416;2023-06-22T05:32:19;100378.95;;;24.64;62.96
35307;BME280;21420;52.196;21.416;2023-06-22T05:34:46;100379.16;;;24.69;62.75
35307;BME280;21420;52.196;21.416;2023-06-22T05:37:13;100380.68;;;24.69;62.47
35307;BME280;21420;52.196;21.416;2023-06-22T05:39:40;100384.45;;;24.61;62.17
35307;BME280;21420;52.196;21.416;2023-06-22T05:42:07;100389.11;;;24.53;62.12
35307;BME280;21420;52.196;21.416;2023-06-22T05:44:36;100392.73;;;24.52;62.16
35307;BME280;21420;52.196;21.416;2023-06-22T05:47:04;100400.88;;;24.52;62.08
35307;BME280;21420;52.196;21.416;2023-06-22T05:49:31;100401.27;;;24.43;61.86
35307;BME280;21420;52.196;21.416;2023-06-22T05:51:59;100400.89;;;24.38;61.89
35307;BME280;21420;52.196;21.416;2023-06-22T05:54:29;100403.61;;;24.39;61.84
35307;BME280;21420;52.196;21.416;2023-06-22T05:56:56;100405.97;;;24.40;61.97
35307;BME280;21420;52.196;21.416;2023-06-22T05:59:23;100406.83;;;24.45;62.02
35307;BME280;21420;52.196;21.416;2023-06-22T06:01:49;100405.62;;;24.46;61.67
35307;BME280;21420;52.196;21.416;2023-06-22T06:04:19;100408.29;;;24.40;61.61
35307;BME280;21420;52.196;21.416;2023-06-22T06:06:46;100412.00;;;24.38;61.72
35307;BME280;21420;52.196;21.416;2023-06-22T06:09:16;100411.27;;;24.47;61.82
35307;BME280;21420;52.196;21.416;2023-06-22T06:11:42;100415.13;;;24.55;61.60
35307;BME280;21420;52.196;21.416;2023-06-22T06:14:09;100418.77;;;24.57;61.61
35307;BME280;21420;52.196;21.416;2023-06-22T06:16:35;100421.70;;;24.58;61.62
35307;BME280;21420;52.196;21.416;2023-06-22T06:19:02;100425.25;;;24.60;61.66
35307;BME280;21420;52.196;21.416;2023-06-22T06:21:29;100426.50;;;24.62;61.51
35307;BME280;21420;52.196;21.416;2023-06-22T06:23:56;100427.77;;;24.66;61.56
35307;BME280;21420;52.196;21.416;2023-06-22T06:26:23;100427.80;;;24.72;61.67
35307;BME280;21420;52.196;21.416;2023-06-22T06:28:56;100428.27;;;24.84;61.52
35307;BME280;21420;52.196;21.416;2023-06-22T06:31:22;100424.14;;;24.75;61.06
35307;BME280;21420;52.196;21.416;2023-06-22T06:33:52;100423.91;;;24.63;60.90
35307;BME280;21420;52.196;21.416;2023-06-22T06:36:20;100427.63;;;24.58;61.07
35307;BME280;21420;52.196;21.416;2023-06-22T06:38:47;100425.11;;;24.56;61.02
35307;BME280;21420;52.196;21.416;2023-06-22T06:41:15;100436.95;;;24.55;61.12
35307;BME280;21420;52.196;21.416;2023-06-22T06:43:42;100433.90;;;24.51;61.13
35307;BME280;21420;52.196;21.416;2023-06-22T06:46:11;100442.36;;;24.44;60.80
35307;BME280;21420;52.196;21.416;2023-06-22T06:48:38;100440.40;;;24.33;61.06
35307;BME280;21420;52.196;21.416;2023-06-22T06:51:06;100438.68;;;24.44;61.26
35307;BME280;21420;52.196;21.416;2023-06-22T06:53:36;100439.03;;;24.55;61.27
35307;BME280;21420;52.196;21.416;2023-06-22T06:56:03;100438.38;;;24.47;61.03
35307;BME280;21420;52.196;21.416;2023-06-22T06:58:30;100437.96;;;24.30;60.72
35307;BME280;21420;52.196;21.416;2023-06-22T07:00:57;100437.67;;;24.16;60.62
35307;BME280;21420;52.196;21.416;2023-06-22T07:03:24;100437.95;;;24.14;60.83
35307;BME280;21420;52.196;21.416;2023-06-22T07:05:50;100433.16;;;24.31;61.38
35307;BME280;21420;52.196;21.416;2023-06-22T07:08:17;100435.80;;;24.57;61.47
35307;BME280;21420;52.196;21.416;2023-06-22T07:10:44;100435.98;;;24.79;61.53
35307;BME280;21420;52.196;21.416;2023-06-22T07:13:10;100431.34;;;24.95;61.23
35307;BME280;21420;52.196;21.416;2023-06-22T07:15:37;100433.85;;;25.07;61.17
35307;BME280;21420;52.196;21.416;2023-06-22T07:18:04;100431.09;;;25.16;61.09
35307;BME280;21420;52.196;21.416;2023-06-22T07:20:31;100435.54;;;25.30;60.97
35307;BME280;21420;52.196;21.416;2023-06-22T07:22:58;100439.13;;;25.47;61.13
35307;BME280;21420;52.196;21.416;2023-06-22T07:25:24;100441.83;;;25.61;61.04
35307;BME280;21420;52.196;21.416;2023-06-22T07:28:00;100446.71;;;25.74;60.97
35307;BME280;21420;52.196;21.416;2023-06-22T07:30:29;100448.69;;;25.86;60.74
35307;BME280;21420;52.196;21.416;2023-06-22T07:32:58;100449.40;;;25.93;60.54
35307;BME280;21420;52.196;21.416;2023-06-22T07:35:25;100453.55;;;25.93;60.36
35307;BME280;21420;52.196;21.416;2023-06-22T07:37:51;100453.45;;;25.91;60.26
35307;BME280;21420;52.196;21.416;2023-06-22T07:40:19;100453.17;;;25.95;60.23
35307;BME280;21420;52.196;21.416;2023-06-22T07:42:46;100455.75;;;25.89;60.13
35307;BME280;21420;52.196;21.416;2023-06-22T07:45:15;100457.42;;;25.86;60.03
35307;BME280;21420;52.196;21.416;2023-06-22T07:47:42;100461.71;;;25.77;59.61
35307;BME280;21420;52.196;21.416;2023-06-22T07:50:10;100462.20;;;25.66;59.47
35307;BME280;21420;52.196;21.416;2023-06-22T07:52:37;100467.07;;;25.61;59.70
35307;BME280;21420;52.196;21.416;2023-06-22T07:55:04;100465.64;;;25.67;59.77
35307;BME280;21420;52.196;21.416;2023-06-22T07:57:31;100463.44;;;25.75;60.00
35307;BME280;21420;52.196;21.416;2023-06-22T08:00:04;100466.45;;;25.87;59.80
35307;BME280;21420;52.196;21.416;2023-06-22T08:02:44;100471.38;;;25.95;59.77
35307;BME280;21420;52.196;21.416;2023-06-22T08:05:12;100469.55;;;26.07;59.85
35307;BME280;21420;52.196;21.416;2023-06-22T08:07:58;100475.58;;;26.24;59.52
35307;BME280;21420;52.196;21.416;2023-06-22T08:10:26;100477.52;;;26.45;59.45
35307;BME280;21420;52.196;21.416;2023-06-22T08:12:52;100476.96;;;26.74;59.61
35307;BME280;21420;52.196;21.416;2023-06-22T08:15:19;100477.56;;;27.20;60.03
35307;BME280;21420;52.196;21.416;2023-06-22T08:17:46;100485.91;;;27.58;59.54
35307;BME280;21420;52.196;21.416;2023-06-22T08:20:13;100483.73;;;27.86;59.19
35307;BME280;21420;52.196;21.416;2023-06-22T08:22:41;100483.70;;;28.40;59.40
35307;BME280;21420;52.196;21.416;2023-06-22T08:25:09;100484.05;;;28.86;58.99
35307;BME280;21420;52.196;21.416;2023-06-22T08:27:37;100477.44;;;29.16;58.76
35307;BME280;21420;52.196;21.416;2023-06-22T08:30:04;100469.23;;;30.01;58.89
35307;BME280;21420;52.196;21.416;2023-06-22T08:32:31;100464.30;;;30.79;58.08
35307;BME280;21420;52.196;21.416;2023-06-22T08:35:00;100465.48;;;31.64;57.92
35307;BME280;21420;52.196;21.416;2023-06-22T08:37:28;100460.70;;;32.52;57.52
35307;BME280;21420;52.196;21.416;2023-06-22T08:40:05;100464.55;;;33.42;57.20
35307;BME280;21420;52.196;21.416;2023-06-22T08:42:35;100471.00;;;34.39;56.65
35307;BME280;21420;52.196;21.416;2023-06-22T08:45:03;100470.89;;;34.92;55.97
35307;BME280;21420;52.196;21.416;2023-06-22T08:47:30;100463.22;;;34.72;54.55
35307;BME280;21420;52.196;21.416;2023-06-22T08:49:58;100462.30;;;34.21;53.97
35307;BME280;21420;52.196;21.416;2023-06-22T08:52:25;100453.70;;;34.28;53.98
35307;BME280;21420;52.196;21.416;2023-06-22T08:54:52;100453.77;;;34.59;53.76
35307;BME280;21420;52.196;21.416;2023-06-22T08:57:20;100453.06;;;34.74;53.33
35307;BME280;21420;52.196;21.416;2023-06-22T08:59:48;100451.95;;;34.97;52.89
35307;BME280;21420;52.196;21.416;2023-06-22T09:02:15;100457.07;;;35.19;52.44
35307;BME280;21420;52.196;21.416;2023-06-22T09:04:42;100459.52;;;35.46;52.05
35307;BME280;21420;52.196;21.416;2023-06-22T09:07:09;100458.67;;;35.59;51.44
35307;BME280;21420;52.196;21.416;2023-06-22T09:09:36;100458.45;;;36.05;51.58
35307;BME280;21420;52.196;21.416;2023-06-22T09:12:03;100459.44;;;36.62;51.13
35307;BME280;21420;52.196;21.416;2023-06-22T09:14:31;100465.08;;;36.88;50.16
35307;BME280;21420;52.196;21.416;2023-06-22T09:16:59;100464.20;;;36.91;49.24
35307;BME280;21420;52.196;21.416;2023-06-22T09:19:26;100460.98;;;36.90;49.02
35307;BME280;21420;52.196;21.416;2023-06-22T09:21:53;100466.27;;;36.97;48.58
35307;BME280;21420;52.196;21.416;2023-06-22T09:24:20;100469.55;;;36.97;48.26
35307;BME280;21420;52.196;21.416;2023-06-22T09:26:46;100468.89;;;37.10;48.16
35307;BME280;21420;52.196;21.416;2023-06-22T09:29:14;100463.92;;;37.46;47.96
35307;BME280;21420;52.196;21.416;2023-06-22T09:31:41;100468.61;;;37.67;47.75
35307;BME280;21420;52.196;21.416;2023-06-22T09:34:08;100463.70;;;37.91;47.52
35307;BME280;21420;52.196;21.416;2023-06-22T09:36:35;100458.73;;;37.97;46.70
35307;BME280;21420;52.196;21.416;2023-06-22T09:39:03;100452.70;;;37.74;46.00
35307;BME280;21420;52.196;21.416;2023-06-22T09:41:33;100445.72;;;37.78;46.04
35307;BME280;21420;52.196;21.416;2023-06-22T09:44:01;100439.61;;;37.88;45.29
35307;BME280;21420;52.196;21.416;2023-06-22T09:46:28;100440.44;;;37.76;44.94
35307;BME280;21420;52.196;21.416;2023-06-22T09:48:55;100436.38;;;38.22;45.38
35307;BME280;21420;52.196;21.416;2023-06-22T09:51:23;100430.23;;;38.45;44.69
35307;BME280;21420;52.196;21.416;2023-06-22T09:53:51;100434.36;;;38.12;43.80
35307;BME280;21420;52.196;21.416;2023-06-22T09:56:21;100432.13;;;37.98;43.94
35307;BME280;21420;52.196;21.416;2023-06-22T09:58:48;100435.89;;;38.10;43.87
35307;BME280;21420;52.196;21.416;2023-06-22T10:01:19;100428.29;;;38.41;43.71
35307;BME280;21420;52.196;21.416;2023-06-22T10:03:48;100428.14;;;38.56;43.45
35307;BME280;21420;52.196;21.416;2023-06-22T10:06:17;100430.68;;;38.89;43.39
35307;BME280;21420;52.196;21.416;2023-06-22T10:08:44;100426.02;;;39.13;42.81
35307;BME280;21420;52.196;21.416;2023-06-22T10:11:12;100428.83;;;39.01;42.13
35307;BME280;21420;52.196;21.416;2023-06-22T10:13:39;100431.01;;;39.02;42.14
35307;BME280;21420;52.196;21.416;2023-06-22T10:16:06;100437.73;;;39.23;42.60
35307;BME280;21420;52.196;21.416;2023-06-22T10:18:34;100433.90;;;39.78;42.36
35307;BME280;21420;52.196;21.416;2023-06-22T10:21:02;100432.73;;;40.13;42.00
35307;BME280;21420;52.196;21.416;2023-06-22T10:23:28;100431.23;;;40.42;41.74
35307;BME280;21420;52.196;21.416;2023-06-22T10:25:55;100431.70;;;40.77;41.23
35307;BME280;21420;52.196;21.416;2023-06-22T10:28:25;100431.83;;;41.09;41.18
35307;BME280;21420;52.196;21.416;2023-06-22T10:30:53;100432.14;;;41.33;40.58
35307;BME280;21420;52.196;21.416;2023-06-22T10:33:21;100433.82;;;41.45;40.27
35307;BME280;21420;52.196;21.416;2023-06-22T10:35:47;100429.95;;;41.65;39.94
35307;BME280;21420;52.196;21.416;2023-06-22T10:38:15;100430.90;;;41.62;39.71
35307;BME280;21420;52.196;21.416;2023-06-22T10:40:42;100430.66;;;41.83;39.62
35307;BME280;21420;52.196;21.416;2023-06-22T10:43:10;100433.52;;;41.69;38.53
35307;BME280;21420;52.196;21.416;2023-06-22T10:45:38;100425.33;;;41.24;37.67
35307;BME280;21420;52.196;21.416;2023-06-22T10:48:06;100426.18;;;40.55;37.50
35307;BME280;21420;52.196;21.416;2023-06-22T10:50:33;100417.77;;;40.20;37.51
35307;BME280;21420;52.196;21.416;2023-06-22T10:53:00;100419.02;;;40.40;37.81
35307;BME280;21420;52.196;21.416;2023-06-22T10:55:27;100411.17;;;40.42;37.32
35307;BME280;21420;52.196;21.416;2023-06-22T10:58:06;100410.00;;;40.06;36.83
35307;BME280;21420;52.196;21.416;2023-06-22T11:00:35;100407.54;;;39.79;36.75
35307;BME280;21420;52.196;21.416;2023-06-22T11:03:03;100400.89;;;39.60;36.63
35307;BME280;21420;52.196;21.416;2023-06-22T11:05:31;100402.20;;;39.46;36.72
35307;BME280;21420;52.196;21.416;2023-06-22T11:07:58;100398.34;;;39.33;36.51
35307;BME280;21420;52.196;21.416;2023-06-22T11:10:24;100396.83;;;39.18;36.22
35307;BME280;21420;52.196;21.416;2023-06-22T11:12:53;100398.36;;;39.31;36.81
35307;BME280;21420;52.196;21.416;2023-06-22T11:15:22;100391.71;;;39.29;36.24
35307;BME280;21420;52.196;21.416;2023-06-22T11:17:50;100390.88;;;38.84;36.08
35307;BME280;21420;52.196;21.416;2023-06-22T11:20:17;100386.11;;;38.82;36.38
35307;BME280;21420;52.196;21.416;2023-06-22T11:22:45;100390.72;;;38.46;35.64
35307;BME280;21420;52.196;21.416;2023-06-22T11:25:14;100392.45;;;38.14;35.66
35307;BME280;21420;52.196;21.416;2023-06-22T11:27:41;100389.61;;;38.19;35.97
35307;BME280;21420;52.196;21.416;2023-06-22T11:30:10;100388.76;;;38.29;36.11
35307;BME280;21420;52.196;21.416;2023-06-22T11:32:40;100385.63;;;38.60;36.42
35307;BME280;21420;52.196;21.416;2023-06-22T11:35:11;100382.62;;;38.78;35.91
35307;BME280;21420;52.196;21.416;2023-06-22T11:37:42;100382.36;;;38.68;35.48
35307;BME280;21420;52.196;21.416;2023-06-22T11:40:14;100379.65;;;38.45;35.39
35307;BME280;21420;52.196;21.416;2023-06-22T11:42:43;100375.95;;;38.26;35.41
35307;BME280;21420;52.196;21.416;2023-06-22T11:45:12;100373.84;;;38.29;35.39
35307;BME280;21420;52.196;21.416;2023-06-22T11:47:42;100371.56;;;38.21;35.15
35307;BME280;21420;52.196;21.416;2023-06-22T11:50:12;100379.42;;;37.75;34.81
35307;BME280;21420;52.196;21.416;2023-06-22T11:52:42;100380.98;;;37.70;35.43
35307;BME280;21420;52.196;21.416;2023-06-22T11:55:12;100377.26;;;37.85;35.73
35307;BME280;21420;52.196;21.416;2023-06-22T11:57:54;100377.19;;;38.01;35.43
35307;BME280;21420;52.196;21.416;2023-06-22T12:00:24;100377.09;;;37.86;35.09
35307;BME280;21420;52.196;21.416;2023-06-22T12:02:57;100372.09;;;38.01;35.51
35307;BME280;21420;52.196;21.416;2023-06-22T12:05:28;100371.50;;;38.03;35.19
35307;BME280;21420;52.196;21.416;2023-06-22T12:07:59;100372.88;;;37.67;34.90
35307;BME280;21420;52.196;21.416;2023-06-22T12:10:30;100374.76;;;37.24;35.03
35307;BME280;21420;52.196;21.416;2023-06-22T12:13:01;100374.39;;;36.97;34.89
35307;BME280;21420;52.196;21.416;2023-06-22T12:15:32;100373.51;;;36.93;35.28
35307;BME280;21420;52.196;21.416;2023-06-22T12:18:02;100370.98;;;36.88;35.17
35307;BME280;21420;52.196;21.416;2023-06-22T12:20:33;100368.69;;;36.65;35.10
35307;BME280;21420;52.196;21.416;2023-06-22T12:23:04;100378.23;;;36.70;35.61
35307;BME280;21420;52.196;21.416;2023-06-22T12:25:34;100379.60;;;37.14;35.80
35307;BME280;21420;52.196;21.416;2023-06-22T12:28:03;100372.52;;;37.20;35.34
35307;BME280;21420;52.196;21.416;2023-06-22T12:36:32;100380.14;;;36.26;35.15
35307;BME280;21420;52.196;21.416;2023-06-22T12:38:59;100378.64;;;36.04;35.47
35307;BME280;21420;52.196;21.416;2023-06-22T12:41:26;100381.21;;;36.14;35.64
35307;BME280;21420;52.196;21.416;2023-06-22T12:43:52;100380.73;;;36.36;35.80
35307;BME280;21420;52.196;21.416;2023-06-22T12:46:19;100374.92;;;36.62;35.88
35307;BME280;21420;52.196;21.416;2023-06-22T12:48:46;100371.45;;;36.71;35.59
35307;BME280;21420;52.196;21.416;2023-06-22T12:51:20;100376.83;;;36.59;35.56
35307;BME280;21420;52.196;21.416;2023-06-22T12:53:48;100376.11;;;36.64;35.42
35307;BME280;21420;52.196;21.416;2023-06-22T12:56:15;100373.46;;;36.84;35.66